Aivik — VOPP — position and weather

sailwx.info

Track history (hours):
 
Tides and Currents Weather Stations Pressure Air Temp Water Temp Dewpoint Dewpoint Depression Visibility Wind Speed Wind Dir Waves Ship Positions

Aivik

Last reported at 2015-Apr-16 21:33 UTC. Time now 2015-Apr-22 03:53 UTC.
Position N 26°23' W 079°59'.

Length 109.9 m; beam 19.4 m; draft 5.9 m.

Type: Cargo ship. MMSI: 316150000.

Date/timePositionNaut miles runAvg speedWind from/ knotsBaromVisibWave heightAir tempDewpointWater temp
2015-Apr-16 21:33N 26°23' W 079°59'8 7.8
2015-Apr-16 20:33N 26°15' W 080°02'7 6.7
2015-Apr-16 19:33N 26°09' W 080°04'4 4.1
2015-Apr-16 18:32N 26°06' W 080°07'0 0.2
2015-Apr-16 17:33N 26°06' W 080°07'0 0.0
2015-Apr-16 16:33N 26°06' W 080°07'0 0.0
2015-Apr-16 15:33N 26°06' W 080°07'0 0.0
2015-Apr-16 14:33N 26°06' W 080°07'0 0.0
2015-Apr-16 13:24N 26°06' W 080°07'0 0.0
2015-Apr-16 12:27N 26°06' W 080°07'0 0.0
2015-Apr-16 11:27N 26°06' W 080°07'0 0.0
2015-Apr-16 10:27N 26°06' W 080°07'0 0.0
2015-Apr-16 09:30N 26°06' W 080°07'0 0.0
2015-Apr-16 08:30N 26°06' W 080°07'0 0.0
2015-Apr-16 07:30N 26°06' W 080°07'0 0.0
2015-Apr-16 06:33N 26°06' W 080°07'0 0.0
2015-Apr-16 05:30N 26°06' W 080°07'0 0.0
2015-Apr-16 04:30N 26°06' W 080°07'0 0.4
2015-Apr-16 03:29N 26°06' W 080°07'2 2.2
2015-Apr-16 02:32N 26°05' W 080°05'7 6.9
2015-Apr-16 01:31N 25°58' W 080°05'  
Track history (hours):
 
Tides and Currents Weather Stations Pressure Air Temp Water Temp Dewpoint Dewpoint Depression Visibility Wind Speed Wind Dir Waves Ship Positions

Aivik

Last reported at 2015-Apr-16 21:33 UTC. Time now 2015-Apr-22 03:53 UTC.
Position N 26°23' W 079°59'.

Length 109.9 m; beam 19.4 m; draft 5.9 m.

Type: Cargo ship. MMSI: 316150000.

Date/timePositionNaut miles runAvg speedWind from/ knotsBaromVisibWave heightAir tempDewpointWater temp
2015-Apr-16 21:33N 26°23' W 079°59'8 7.8
2015-Apr-16 20:33N 26°15' W 080°02'7 6.7
2015-Apr-16 19:33N 26°09' W 080°04'4 4.1
2015-Apr-16 18:32N 26°06' W 080°07'0 0.2
2015-Apr-16 17:33N 26°06' W 080°07'0 0.0
2015-Apr-16 16:33N 26°06' W 080°07'0 0.0
2015-Apr-16 15:33N 26°06' W 080°07'0 0.0
2015-Apr-16 14:33N 26°06' W 080°07'0 0.0
2015-Apr-16 13:24N 26°06' W 080°07'0 0.0
2015-Apr-16 12:27N 26°06' W 080°07'0 0.0
2015-Apr-16 11:27N 26°06' W 080°07'0 0.0
2015-Apr-16 10:27N 26°06' W 080°07'0 0.0
2015-Apr-16 09:30N 26°06' W 080°07'0 0.0
2015-Apr-16 08:30N 26°06' W 080°07'0 0.0
2015-Apr-16 07:30N 26°06' W 080°07'0 0.0
2015-Apr-16 06:33N 26°06' W 080°07'0 0.0
2015-Apr-16 05:30N 26°06' W 080°07'0 0.0
2015-Apr-16 04:30N 26°06' W 080°07'0 0.4
2015-Apr-16 03:29N 26°06' W 080°07'2 2.2
2015-Apr-16 02:32N 26°05' W 080°05'7 6.9
2015-Apr-16 01:31N 25°58' W 080°05'  

Dump ship's entire track history